sensor_id;sensor_type;location;lat;lon;timestamp;pressure;altitude;pressure_sealevel;temperature;humidity
25510;BME280;13413;52.336;21.200;2023-01-28T00:02:08;101236.17;;;4.73;64.01
25510;BME280;13413;52.336;21.200;2023-01-28T00:05:03;101234.73;;;4.73;64.16
25510;BME280;13413;52.336;21.200;2023-01-28T00:07:57;101235.83;;;4.72;64.03
25510;BME280;13413;52.336;21.200;2023-01-28T00:10:51;101233.11;;;4.69;64.31
25510;BME280;13413;52.336;21.200;2023-01-28T00:13:45;101233.55;;;4.68;64.25
25510;BME280;13413;52.336;21.200;2023-01-28T00:16:39;101235.80;;;4.68;64.24
25510;BME280;13413;52.336;21.200;2023-01-28T00:19:33;101236.49;;;4.68;64.34
25510;BME280;13413;52.336;21.200;2023-01-28T00:22:27;101238.02;;;4.69;64.31
25510;BME280;13413;52.336;21.200;2023-01-28T00:25:21;101233.77;;;4.69;64.32
25510;BME280;13413;52.336;21.200;2023-01-28T00:28:15;101231.41;;;4.73;64.36
25510;BME280;13413;52.336;21.200;2023-01-28T00:31:11;101231.59;;;4.75;64.29
25510;BME280;13413;52.336;21.200;2023-01-28T00:34:07;101232.02;;;4.76;64.26
25510;BME280;13413;52.336;21.200;2023-01-28T00:37:02;101234.33;;;4.74;64.21
25510;BME280;13413;52.336;21.200;2023-01-28T00:39:56;101233.27;;;4.74;64.38
25510;BME280;13413;52.336;21.200;2023-01-28T00:42:50;101236.01;;;4.75;64.36
25510;BME280;13413;52.336;21.200;2023-01-28T00:45:44;101230.66;;;4.76;64.12
25510;BME280;13413;52.336;21.200;2023-01-28T00:48:39;101229.48;;;4.73;64.22
25510;BME280;13413;52.336;21.200;2023-01-28T00:51:34;101228.56;;;4.73;64.28
25510;BME280;13413;52.336;21.200;2023-01-28T00:54:28;101227.58;;;4.75;64.31
25510;BME280;13413;52.336;21.200;2023-01-28T00:57:22;101228.91;;;4.78;64.37
25510;BME280;13413;52.336;21.200;2023-01-28T01:00:18;101224.79;;;4.79;64.33
25510;BME280;13413;52.336;21.200;2023-01-28T01:03:13;101224.20;;;4.80;64.44
25510;BME280;13413;52.336;21.200;2023-01-28T01:06:08;101223.80;;;4.78;64.43
25510;BME280;13413;52.336;21.200;2023-01-28T01:12:12;101226.49;;;4.84;64.25
25510;BME280;13413;52.336;21.200;2023-01-28T01:20:44;101223.64;;;4.87;64.34
25510;BME280;13413;52.336;21.200;2023-01-28T01:23:38;101221.04;;;4.85;64.33
25510;BME280;13413;52.336;21.200;2023-01-28T01:26:33;101223.83;;;4.85;64.20
25510;BME280;13413;52.336;21.200;2023-01-28T01:29:27;101223.41;;;4.86;64.34
25510;BME280;13413;52.336;21.200;2023-01-28T01:32:21;101221.38;;;4.85;64.38
25510;BME280;13413;52.336;21.200;2023-01-28T01:35:15;101220.38;;;4.89;64.41
25510;BME280;13413;52.336;21.200;2023-01-28T01:38:23;101220.09;;;4.90;64.15
25510;BME280;13413;52.336;21.200;2023-01-28T01:41:24;101223.24;;;4.90;64.27
25510;BME280;13413;52.336;21.200;2023-01-28T01:44:54;101227.27;;;4.88;64.22
25510;BME280;13413;52.336;21.200;2023-01-28T01:47:54;101226.09;;;4.87;64.21
25510;BME280;13413;52.336;21.200;2023-01-28T01:50:55;101220.20;;;4.89;64.40
25510;BME280;13413;52.336;21.200;2023-01-28T01:53:52;101220.55;;;4.89;64.24
25510;BME280;13413;52.336;21.200;2023-01-28T01:56:49;101222.85;;;4.89;64.26
25510;BME280;13413;52.336;21.200;2023-01-28T01:59:44;101222.40;;;4.87;64.35
25510;BME280;13413;52.336;21.200;2023-01-28T02:02:41;101214.11;;;4.86;64.40
25510;BME280;13413;52.336;21.200;2023-01-28T02:05:36;101219.27;;;4.85;64.48
25510;BME280;13413;52.336;21.200;2023-01-28T02:08:30;101224.26;;;4.86;64.40
25510;BME280;13413;52.336;21.200;2023-01-28T02:11:26;101226.77;;;4.85;64.49
25510;BME280;13413;52.336;21.200;2023-01-28T02:14:23;101229.61;;;4.85;64.37
25510;BME280;13413;52.336;21.200;2023-01-28T02:17:22;101230.81;;;4.85;64.36
25510;BME280;13413;52.336;21.200;2023-01-28T02:20:41;101230.44;;;4.85;64.45
25510;BME280;13413;52.336;21.200;2023-01-28T02:23:55;101229.98;;;4.87;64.43
25510;BME280;13413;52.336;21.200;2023-01-28T02:27:09;101229.85;;;4.86;64.41
25510;BME280;13413;52.336;21.200;2023-01-28T02:30:12;101238.81;;;4.86;64.38
25510;BME280;13413;52.336;21.200;2023-01-28T02:33:13;101236.29;;;4.87;64.37
25510;BME280;13413;52.336;21.200;2023-01-28T02:36:17;101236.48;;;4.91;64.40
25510;BME280;13413;52.336;21.200;2023-01-28T02:39:17;101234.88;;;4.92;64.29
25510;BME280;13413;52.336;21.200;2023-01-28T02:42:16;101233.86;;;4.93;64.38
25510;BME280;13413;52.336;21.200;2023-01-28T02:45:20;101229.84;;;4.93;64.24
25510;BME280;13413;52.336;21.200;2023-01-28T02:48:16;101234.71;;;4.96;64.43
25510;BME280;13413;52.336;21.200;2023-01-28T02:51:20;101236.45;;;4.96;64.36
25510;BME280;13413;52.336;21.200;2023-01-28T02:54:22;101238.21;;;4.98;64.40
25510;BME280;13413;52.336;21.200;2023-01-28T02:57:28;101235.39;;;4.98;64.40
25510;BME280;13413;52.336;21.200;2023-01-28T03:00:45;101236.41;;;4.97;64.32
25510;BME280;13413;52.336;21.200;2023-01-28T03:03:49;101237.09;;;4.95;64.33
25510;BME280;13413;52.336;21.200;2023-01-28T03:06:48;101239.23;;;4.94;64.34
25510;BME280;13413;52.336;21.200;2023-01-28T03:09:45;101242.09;;;4.96;64.20
25510;BME280;13413;52.336;21.200;2023-01-28T03:12:42;101241.02;;;4.96;64.44
25510;BME280;13413;52.336;21.200;2023-01-28T03:15:41;101239.15;;;4.95;64.39
25510;BME280;13413;52.336;21.200;2023-01-28T03:18:40;101243.70;;;4.95;64.27
25510;BME280;13413;52.336;21.200;2023-01-28T03:21:41;101239.16;;;4.93;64.34
25510;BME280;13413;52.336;21.200;2023-01-28T03:24:39;101243.34;;;4.91;64.31
25510;BME280;13413;52.336;21.200;2023-01-28T03:27:42;101242.65;;;4.88;64.59
25510;BME280;13413;52.336;21.200;2023-01-28T03:30:38;101245.59;;;4.87;64.41
25510;BME280;13413;52.336;21.200;2023-01-28T03:38:11;101237.27;;;4.90;64.56
25510;BME280;13413;52.336;21.200;2023-01-28T03:41:06;101234.01;;;4.89;64.49
25510;BME280;13413;52.336;21.200;2023-01-28T03:43:58;101229.90;;;4.88;64.34
25510;BME280;13413;52.336;21.200;2023-01-28T03:46:52;101233.12;;;4.85;64.48
25510;BME280;13413;52.336;21.200;2023-01-28T03:49:48;101234.21;;;4.82;64.56
25510;BME280;13413;52.336;21.200;2023-01-28T03:52:43;101235.67;;;4.81;64.46
25510;BME280;13413;52.336;21.200;2023-01-28T03:55:36;101235.36;;;4.81;64.65
25510;BME280;13413;52.336;21.200;2023-01-28T03:58:30;101237.98;;;4.83;64.63
25510;BME280;13413;52.336;21.200;2023-01-28T04:01:24;101237.98;;;4.85;64.44
25510;BME280;13413;52.336;21.200;2023-01-28T04:04:18;101241.45;;;4.84;64.50
25510;BME280;13413;52.336;21.200;2023-01-28T04:07:13;101240.91;;;4.84;64.41
25510;BME280;13413;52.336;21.200;2023-01-28T04:10:07;101238.98;;;4.86;64.50
25510;BME280;13413;52.336;21.200;2023-01-28T04:13:01;101237.66;;;4.87;64.59
25510;BME280;13413;52.336;21.200;2023-01-28T04:15:56;101240.02;;;4.88;64.45
25510;BME280;13413;52.336;21.200;2023-01-28T04:18:50;101238.43;;;4.89;64.67
25510;BME280;13413;52.336;21.200;2023-01-28T04:21:44;101238.84;;;4.90;64.65
25510;BME280;13413;52.336;21.200;2023-01-28T04:24:37;101237.96;;;4.90;64.43
25510;BME280;13413;52.336;21.200;2023-01-28T04:27:53;101233.81;;;4.90;64.75
25510;BME280;13413;52.336;21.200;2023-01-28T04:30:46;101240.00;;;4.91;64.48
25510;BME280;13413;52.336;21.200;2023-01-28T04:34:01;101241.45;;;4.95;64.54
25510;BME280;13413;52.336;21.200;2023-01-28T04:36:56;101242.86;;;4.97;64.39
25510;BME280;13413;52.336;21.200;2023-01-28T04:39:51;101242.19;;;4.99;64.55
25510;BME280;13413;52.336;21.200;2023-01-28T04:42:55;101244.75;;;5.00;64.48
25510;BME280;13413;52.336;21.200;2023-01-28T04:45:50;101242.69;;;4.99;64.48
25510;BME280;13413;52.336;21.200;2023-01-28T04:49:04;101245.45;;;5.00;64.35
25510;BME280;13413;52.336;21.200;2023-01-28T04:51:59;101246.98;;;5.01;64.45
25510;BME280;13413;52.336;21.200;2023-01-28T04:54:52;101253.66;;;5.00;64.36
25510;BME280;13413;52.336;21.200;2023-01-28T04:58:00;101254.67;;;5.01;64.47
25510;BME280;13413;52.336;21.200;2023-01-28T05:00:57;101253.87;;;5.02;64.39
25510;BME280;13413;52.336;21.200;2023-01-28T05:03:52;101254.41;;;5.04;64.46
25510;BME280;13413;52.336;21.200;2023-01-28T05:09:53;101257.15;;;5.03;64.42
25510;BME280;13413;52.336;21.200;2023-01-28T05:12:48;101259.82;;;5.02;64.37
25510;BME280;13413;52.336;21.200;2023-01-28T05:15:41;101254.59;;;5.02;64.48
25510;BME280;13413;52.336;21.200;2023-01-28T05:18:35;101253.41;;;4.99;64.48
25510;BME280;13413;52.336;21.200;2023-01-28T05:21:30;101253.36;;;4.97;64.44
25510;BME280;13413;52.336;21.200;2023-01-28T05:24:23;101258.41;;;4.95;64.61
25510;BME280;13413;52.336;21.200;2023-01-28T05:27:18;101256.54;;;4.92;64.48
25510;BME280;13413;52.336;21.200;2023-01-28T05:30:12;101258.52;;;4.94;64.59
25510;BME280;13413;52.336;21.200;2023-01-28T05:33:04;101257.55;;;4.93;64.52
25510;BME280;13413;52.336;21.200;2023-01-28T05:35:58;101262.89;;;4.94;64.75
25510;BME280;13413;52.336;21.200;2023-01-28T05:38:55;101260.89;;;4.95;64.76
25510;BME280;13413;52.336;21.200;2023-01-28T05:41:48;101259.96;;;4.93;64.59
25510;BME280;13413;52.336;21.200;2023-01-28T05:44:43;101261.01;;;4.91;64.69
25510;BME280;13413;52.336;21.200;2023-01-28T05:47:37;101264.19;;;4.91;64.78
25510;BME280;13413;52.336;21.200;2023-01-28T05:56:34;101267.20;;;5.04;64.77
25510;BME280;13413;52.336;21.200;2023-01-28T05:59:28;101268.11;;;5.04;64.72
25510;BME280;13413;52.336;21.200;2023-01-28T06:02:22;101272.95;;;5.07;64.76
25510;BME280;13413;52.336;21.200;2023-01-28T06:05:17;101270.04;;;5.10;64.74
25510;BME280;13413;52.336;21.200;2023-01-28T06:08:12;101273.98;;;5.11;64.72
25510;BME280;13413;52.336;21.200;2023-01-28T06:11:05;101278.50;;;5.09;64.70
25510;BME280;13413;52.336;21.200;2023-01-28T06:13:59;101278.80;;;5.08;64.69
25510;BME280;13413;52.336;21.200;2023-01-28T06:16:52;101280.69;;;5.09;64.82
25510;BME280;13413;52.336;21.200;2023-01-28T06:19:46;101282.40;;;5.09;64.57
25510;BME280;13413;52.336;21.200;2023-01-28T06:22:41;101283.18;;;5.10;64.67
25510;BME280;13413;52.336;21.200;2023-01-28T06:25:34;101285.75;;;5.09;64.81
25510;BME280;13413;52.336;21.200;2023-01-28T06:28:28;101288.05;;;5.09;64.80
25510;BME280;13413;52.336;21.200;2023-01-28T06:31:23;101288.30;;;5.07;64.74
25510;BME280;13413;52.336;21.200;2023-01-28T06:34:17;101290.66;;;5.06;64.80
25510;BME280;13413;52.336;21.200;2023-01-28T06:37:13;101290.88;;;5.06;64.78
25510;BME280;13413;52.336;21.200;2023-01-28T06:40:10;101294.17;;;5.02;64.79
25510;BME280;13413;52.336;21.200;2023-01-28T06:43:06;101297.54;;;4.99;64.92
25510;BME280;13413;52.336;21.200;2023-01-28T06:46:01;101300.36;;;4.99;64.93
25510;BME280;13413;52.336;21.200;2023-01-28T06:48:54;101300.93;;;5.01;64.90
25510;BME280;13413;52.336;21.200;2023-01-28T06:51:48;101299.97;;;5.00;64.89
25510;BME280;13413;52.336;21.200;2023-01-28T06:54:43;101297.68;;;4.97;64.85
25510;BME280;13413;52.336;21.200;2023-01-28T06:57:38;101301.20;;;4.95;64.86
25510;BME280;13413;52.336;21.200;2023-01-28T07:00:33;101307.17;;;4.93;65.01
25510;BME280;13413;52.336;21.200;2023-01-28T07:03:27;101307.38;;;4.95;65.05
25510;BME280;13413;52.336;21.200;2023-01-28T07:06:21;101308.32;;;4.98;64.90
25510;BME280;13413;52.336;21.200;2023-01-28T07:09:15;101307.33;;;4.97;64.92
25510;BME280;13413;52.336;21.200;2023-01-28T07:12:09;101314.54;;;4.97;64.96
25510;BME280;13413;52.336;21.200;2023-01-28T07:15:05;101313.79;;;4.96;64.99
25510;BME280;13413;52.336;21.200;2023-01-28T07:18:00;101311.33;;;4.94;64.95
25510;BME280;13413;52.336;21.200;2023-01-28T07:20:54;101311.73;;;4.93;64.91
25510;BME280;13413;52.336;21.200;2023-01-28T07:23:48;101315.02;;;4.93;65.06
25510;BME280;13413;52.336;21.200;2023-01-28T07:26:42;101314.27;;;4.94;65.08
25510;BME280;13413;52.336;21.200;2023-01-28T07:29:36;101316.55;;;4.96;65.05
25510;BME280;13413;52.336;21.200;2023-01-28T07:32:30;101319.21;;;4.98;64.95
25510;BME280;13413;52.336;21.200;2023-01-28T07:35:25;101324.36;;;4.99;64.90
25510;BME280;13413;52.336;21.200;2023-01-28T07:38:20;101320.17;;;4.99;64.97
25510;BME280;13413;52.336;21.200;2023-01-28T07:41:35;101323.41;;;5.00;65.07
25510;BME280;13413;52.336;21.200;2023-01-28T07:44:29;101324.31;;;5.02;64.93
25510;BME280;13413;52.336;21.200;2023-01-28T07:47:23;101322.77;;;5.00;64.90
25510;BME280;13413;52.336;21.200;2023-01-28T07:50:16;101324.57;;;4.99;64.94
25510;BME280;13413;52.336;21.200;2023-01-28T07:53:10;101328.17;;;5.00;65.03
25510;BME280;13413;52.336;21.200;2023-01-28T07:56:03;101330.30;;;5.04;65.02
25510;BME280;13413;52.336;21.200;2023-01-28T07:58:56;101325.02;;;5.04;64.93
25510;BME280;13413;52.336;21.200;2023-01-28T08:01:50;101323.16;;;5.01;65.00
25510;BME280;13413;52.336;21.200;2023-01-28T08:04:45;101323.86;;;4.99;64.92
25510;BME280;13413;52.336;21.200;2023-01-28T08:07:37;101326.02;;;4.98;64.96
25510;BME280;13413;52.336;21.200;2023-01-28T08:16:05;101318.44;;;5.01;64.94
25510;BME280;13413;52.336;21.200;2023-01-28T08:18:59;101323.31;;;4.97;65.06
25510;BME280;13413;52.336;21.200;2023-01-28T08:21:52;101323.13;;;4.97;65.01
25510;BME280;13413;52.336;21.200;2023-01-28T08:24:47;101325.11;;;4.99;65.05
25510;BME280;13413;52.336;21.200;2023-01-28T08:27:41;101326.04;;;4.98;65.09
25510;BME280;13413;52.336;21.200;2023-01-28T08:30:36;101323.98;;;4.97;64.99
25510;BME280;13413;52.336;21.200;2023-01-28T08:33:28;101323.28;;;4.95;64.91
25510;BME280;13413;52.336;21.200;2023-01-28T08:39:29;101324.92;;;4.97;65.01
25510;BME280;13413;52.336;21.200;2023-01-28T08:45:30;101323.91;;;4.98;65.12
25510;BME280;13413;52.336;21.200;2023-01-28T08:51:31;101323.27;;;5.00;65.07
25510;BME280;13413;52.336;21.200;2023-01-28T08:54:27;101322.63;;;4.97;65.00
25510;BME280;13413;52.336;21.200;2023-01-28T08:57:21;101326.73;;;4.93;64.92
25510;BME280;13413;52.336;21.200;2023-01-28T09:00:16;101331.58;;;4.94;65.01
25510;BME280;13413;52.336;21.200;2023-01-28T09:03:08;101332.23;;;4.97;65.22
25510;BME280;13413;52.336;21.200;2023-01-28T09:06:03;101335.53;;;4.98;65.11
25510;BME280;13413;52.336;21.200;2023-01-28T09:08:58;101338.48;;;4.96;65.18
25510;BME280;13413;52.336;21.200;2023-01-28T09:11:53;101342.77;;;4.97;65.01
25510;BME280;13413;52.336;21.200;2023-01-28T09:14:47;101348.20;;;4.97;65.16
25510;BME280;13413;52.336;21.200;2023-01-28T09:17:41;101347.86;;;4.99;64.98
25510;BME280;13413;52.336;21.200;2023-01-28T09:20:36;101353.02;;;5.02;65.09
25510;BME280;13413;52.336;21.200;2023-01-28T09:23:30;101353.95;;;5.00;65.00
25510;BME280;13413;52.336;21.200;2023-01-28T09:26:24;101356.15;;;4.96;65.02
25510;BME280;13413;52.336;21.200;2023-01-28T09:29:18;101355.66;;;4.96;65.02
25510;BME280;13413;52.336;21.200;2023-01-28T09:32:12;101353.81;;;4.95;64.88
25510;BME280;13413;52.336;21.200;2023-01-28T09:35:07;101353.06;;;4.95;64.92
25510;BME280;13413;52.336;21.200;2023-01-28T09:38:01;101354.23;;;4.98;65.01
25510;BME280;13413;52.336;21.200;2023-01-28T09:40:55;101353.88;;;4.98;65.03
25510;BME280;13413;52.336;21.200;2023-01-28T09:44:01;101352.70;;;5.00;65.02
25510;BME280;13413;52.336;21.200;2023-01-28T09:47:01;101348.32;;;5.05;65.06
25510;BME280;13413;52.336;21.200;2023-01-28T09:49:58;101352.15;;;5.07;65.02
25510;BME280;13413;52.336;21.200;2023-01-28T09:52:56;101350.31;;;5.06;64.88
25510;BME280;13413;52.336;21.200;2023-01-28T09:55:56;101355.24;;;5.05;64.85
25510;BME280;13413;52.336;21.200;2023-01-28T09:58:51;101352.62;;;5.06;65.02
25510;BME280;13413;52.336;21.200;2023-01-28T10:01:51;101350.91;;;5.07;64.92
25510;BME280;13413;52.336;21.200;2023-01-28T10:04:55;101347.16;;;5.08;64.94
25510;BME280;13413;52.336;21.200;2023-01-28T10:07:57;101344.95;;;5.09;64.99
25510;BME280;13413;52.336;21.200;2023-01-28T10:10:58;101346.21;;;5.11;65.02
25510;BME280;13413;52.336;21.200;2023-01-28T10:14:00;101342.33;;;5.12;64.96
25510;BME280;13413;52.336;21.200;2023-01-28T10:17:06;101339.59;;;5.13;65.04
25510;BME280;13413;52.336;21.200;2023-01-28T10:20:07;101340.71;;;5.14;64.91
25510;BME280;13413;52.336;21.200;2023-01-28T10:23:13;101343.97;;;5.16;64.90
25510;BME280;13413;52.336;21.200;2023-01-28T10:32:22;101337.80;;;5.23;64.85
25510;BME280;13413;52.336;21.200;2023-01-28T10:35:19;101336.16;;;5.21;64.97
25510;BME280;13413;52.336;21.200;2023-01-28T10:38:17;101334.48;;;5.16;64.94
25510;BME280;13413;52.336;21.200;2023-01-28T10:41:16;101335.38;;;5.13;64.84
25510;BME280;13413;52.336;21.200;2023-01-28T10:44:18;101331.70;;;5.13;64.81
25510;BME280;13413;52.336;21.200;2023-01-28T10:47:19;101325.46;;;5.15;64.96
25510;BME280;13413;52.336;21.200;2023-01-28T10:50:17;101328.52;;;5.16;64.93
25510;BME280;13413;52.336;21.200;2023-01-28T10:53:12;101325.39;;;5.11;64.67
25510;BME280;13413;52.336;21.200;2023-01-28T10:56:09;101326.31;;;5.10;64.97
25510;BME280;13413;52.336;21.200;2023-01-28T10:59:05;101325.48;;;5.12;64.91
25510;BME280;13413;52.336;21.200;2023-01-28T11:02:02;101325.96;;;5.10;64.79
25510;BME280;13413;52.336;21.200;2023-01-28T11:05:14;101325.80;;;5.10;64.77
25510;BME280;13413;52.336;21.200;2023-01-28T11:08:18;101316.84;;;5.11;64.97
25510;BME280;13413;52.336;21.200;2023-01-28T11:11:15;101312.88;;;5.14;64.97
25510;BME280;13413;52.336;21.200;2023-01-28T11:14:21;101317.52;;;5.18;64.89
25510;BME280;13413;52.336;21.200;2023-01-28T11:17:18;101311.20;;;5.16;64.91
25510;BME280;13413;52.336;21.200;2023-01-28T11:20:20;101308.33;;;5.13;64.85
25510;BME280;13413;52.336;21.200;2023-01-28T11:23:22;101310.81;;;5.16;64.89
25510;BME280;13413;52.336;21.200;2023-01-28T11:26:20;101316.31;;;5.17;64.97
25510;BME280;13413;52.336;21.200;2023-01-28T11:29:23;101314.48;;;5.14;64.79
25510;BME280;13413;52.336;21.200;2023-01-28T11:32:23;101308.31;;;5.14;64.84
25510;BME280;13413;52.336;21.200;2023-01-28T11:35:27;101308.17;;;5.21;64.95
25510;BME280;13413;52.336;21.200;2023-01-28T11:38:23;101304.13;;;5.23;64.73
25510;BME280;13413;52.336;21.200;2023-01-28T11:41:17;101301.17;;;5.23;64.70
25510;BME280;13413;52.336;21.200;2023-01-28T11:44:14;101295.23;;;5.20;64.73
25510;BME280;13413;52.336;21.200;2023-01-28T11:47:20;101295.76;;;5.20;64.68
25510;BME280;13413;52.336;21.200;2023-01-28T11:50:30;101296.07;;;5.21;64.75
25510;BME280;13413;52.336;21.200;2023-01-28T11:53:45;101293.63;;;5.25;64.74
25510;BME280;13413;52.336;21.200;2023-01-28T11:57:06;101297.77;;;5.28;64.88
25510;BME280;13413;52.336;21.200;2023-01-28T12:00:30;101298.76;;;5.25;64.62
25510;BME280;13413;52.336;21.200;2023-01-28T12:03:45;101294.22;;;5.22;64.59
25510;BME280;13413;52.336;21.200;2023-01-28T12:09:57;101295.59;;;5.20;64.63
25510;BME280;13413;52.336;21.200;2023-01-28T12:13:04;101294.24;;;5.19;64.57
25510;BME280;13413;52.336;21.200;2023-01-28T12:16:12;101294.16;;;5.23;64.66
25510;BME280;13413;52.336;21.200;2023-01-28T12:19:27;101292.11;;;5.29;64.87
25510;BME280;13413;52.336;21.200;2023-01-28T12:22:48;101293.85;;;5.31;64.75
25510;BME280;13413;52.336;21.200;2023-01-28T12:25:55;101296.50;;;5.31;64.65
25510;BME280;13413;52.336;21.200;2023-01-28T12:29:11;101293.16;;;5.29;64.61
25510;BME280;13413;52.336;21.200;2023-01-28T12:32:27;101290.48;;;5.27;64.47
25510;BME280;13413;52.336;21.200;2023-01-28T12:35:30;101293.96;;;5.29;64.65
25510;BME280;13413;52.336;21.200;2023-01-28T12:38:37;101290.05;;;5.30;64.45
25510;BME280;13413;52.336;21.200;2023-01-28T12:41:36;101288.40;;;5.27;64.63
25510;BME280;13413;52.336;21.200;2023-01-28T12:44:32;101292.41;;;5.27;64.60
25510;BME280;13413;52.336;21.200;2023-01-28T12:50:35;101290.23;;;5.30;64.38
25510;BME280;13413;52.336;21.200;2023-01-28T12:53:36;101294.83;;;5.28;64.51
25510;BME280;13413;52.336;21.200;2023-01-28T12:56:36;101293.75;;;5.26;64.57
25510;BME280;13413;52.336;21.200;2023-01-28T12:59:38;101298.30;;;5.26;64.55
25510;BME280;13413;52.336;21.200;2023-01-28T13:02:40;101297.16;;;5.25;64.47
25510;BME280;13413;52.336;21.200;2023-01-28T13:05:39;101290.52;;;5.27;64.54
25510;BME280;13413;52.336;21.200;2023-01-28T13:08:36;101292.45;;;5.25;64.38
25510;BME280;13413;52.336;21.200;2023-01-28T13:11:31;101295.42;;;5.24;64.42
25510;BME280;13413;52.336;21.200;2023-01-28T13:14:29;101292.52;;;5.21;64.51
25510;BME280;13413;52.336;21.200;2023-01-28T13:17:29;101289.73;;;5.21;64.56
25510;BME280;13413;52.336;21.200;2023-01-28T13:20:46;101292.89;;;5.23;64.63
25510;BME280;13413;52.336;21.200;2023-01-28T13:23:43;101292.84;;;5.22;64.39
25510;BME280;13413;52.336;21.200;2023-01-28T13:26:45;101298.44;;;5.20;64.31
25510;BME280;13413;52.336;21.200;2023-01-28T13:29:40;101295.41;;;5.18;64.30
25510;BME280;13413;52.336;21.200;2023-01-28T13:32:34;101293.81;;;5.16;64.33
25510;BME280;13413;52.336;21.200;2023-01-28T13:35:31;101299.69;;;5.14;64.44
25510;BME280;13413;52.336;21.200;2023-01-28T13:38:26;101294.75;;;5.10;64.34
25510;BME280;13413;52.336;21.200;2023-01-28T13:41:20;101295.38;;;5.09;64.44
25510;BME280;13413;52.336;21.200;2023-01-28T13:44:27;101296.35;;;5.08;64.37
25510;BME280;13413;52.336;21.200;2023-01-28T13:47:25;101295.10;;;5.08;64.51
25510;BME280;13413;52.336;21.200;2023-01-28T13:50:24;101296.68;;;5.08;64.53
25510;BME280;13413;52.336;21.200;2023-01-28T13:53:34;101297.31;;;5.09;64.38
25510;BME280;13413;52.336;21.200;2023-01-28T13:56:36;101289.38;;;5.10;64.61
25510;BME280;13413;52.336;21.200;2023-01-28T13:59:50;101292.64;;;5.11;64.53
25510;BME280;13413;52.336;21.200;2023-01-28T14:06:19;101293.30;;;5.06;64.52
25510;BME280;13413;52.336;21.200;2023-01-28T14:09:38;101283.88;;;5.08;64.53
25510;BME280;13413;52.336;21.200;2023-01-28T14:13:04;101289.34;;;5.12;64.58
25510;BME280;13413;52.336;21.200;2023-01-28T14:16:16;101291.89;;;5.13;64.39
25510;BME280;13413;52.336;21.200;2023-01-28T14:19:14;101293.50;;;5.15;64.49
25510;BME280;13413;52.336;21.200;2023-01-28T14:22:08;101295.73;;;5.16;64.41
25510;BME280;13413;52.336;21.200;2023-01-28T14:25:10;101292.06;;;5.13;64.37
25510;BME280;13413;52.336;21.200;2023-01-28T14:28:06;101288.53;;;5.11;64.41
25510;BME280;13413;52.336;21.200;2023-01-28T14:31:06;101293.68;;;5.08;64.25
25510;BME280;13413;52.336;21.200;2023-01-28T14:34:08;101294.27;;;5.08;64.33
25510;BME280;13413;52.336;21.200;2023-01-28T14:37:06;101291.98;;;5.08;64.49
25510;BME280;13413;52.336;21.200;2023-01-28T14:40:02;101292.44;;;5.08;64.40
25510;BME280;13413;52.336;21.200;2023-01-28T14:42:58;101292.61;;;5.11;64.54
25510;BME280;13413;52.336;21.200;2023-01-28T14:46:07;101295.06;;;5.08;64.29
25510;BME280;13413;52.336;21.200;2023-01-28T14:49:15;101295.98;;;5.03;64.36
25510;BME280;13413;52.336;21.200;2023-01-28T14:52:23;101288.50;;;5.03;64.36
25510;BME280;13413;52.336;21.200;2023-01-28T14:55:31;101296.73;;;5.01;64.38
25510;BME280;13413;52.336;21.200;2023-01-28T14:58:30;101297.70;;;5.02;64.47
25510;BME280;13413;52.336;21.200;2023-01-28T15:01:28;101296.59;;;5.00;64.43
25510;BME280;13413;52.336;21.200;2023-01-28T15:04:27;101298.92;;;5.00;64.37
25510;BME280;13413;52.336;21.200;2023-01-28T15:07:23;101298.98;;;5.01;64.16
25510;BME280;13413;52.336;21.200;2023-01-28T15:10:23;101306.50;;;4.99;64.14
25510;BME280;13413;52.336;21.200;2023-01-28T15:13:22;101303.83;;;4.93;64.13
25510;BME280;13413;52.336;21.200;2023-01-28T15:16:21;101308.48;;;4.92;64.17
25510;BME280;13413;52.336;21.200;2023-01-28T15:19:18;101312.80;;;4.92;64.24
25510;BME280;13413;52.336;21.200;2023-01-28T15:22:18;101315.46;;;4.92;64.25
25510;BME280;13413;52.336;21.200;2023-01-28T15:25:20;101318.36;;;4.91;64.35
25510;BME280;13413;52.336;21.200;2023-01-28T15:28:24;101317.16;;;4.90;64.31
25510;BME280;13413;52.336;21.200;2023-01-28T15:31:23;101318.50;;;4.89;64.25
25510;BME280;13413;52.336;21.200;2023-01-28T15:34:20;101319.63;;;4.90;64.14
25510;BME280;13413;52.336;21.200;2023-01-28T15:37:15;101317.83;;;4.86;64.08
25510;BME280;13413;52.336;21.200;2023-01-28T15:40:18;101322.64;;;4.83;64.12
25510;BME280;13413;52.336;21.200;2023-01-28T15:43:24;101318.45;;;4.80;64.06
25510;BME280;13413;52.336;21.200;2023-01-28T15:46:21;101321.17;;;4.81;64.26
25510;BME280;13413;52.336;21.200;2023-01-28T15:49:17;101322.85;;;4.82;64.11
25510;BME280;13413;52.336;21.200;2023-01-28T15:52:11;101323.38;;;4.82;64.21
25510;BME280;13413;52.336;21.200;2023-01-28T15:55:19;101324.13;;;4.86;64.17
25510;BME280;13413;52.336;21.200;2023-01-28T15:58:27;101320.06;;;4.84;63.91
25510;BME280;13413;52.336;21.200;2023-01-28T16:01:22;101320.48;;;4.84;64.03
25510;BME280;13413;52.336;21.200;2023-01-28T16:04:24;101317.68;;;4.84;63.99
25510;BME280;13413;52.336;21.200;2023-01-28T16:07:18;101318.79;;;4.81;63.78
25510;BME280;13413;52.336;21.200;2023-01-28T16:10:21;101317.46;;;4.80;63.94
25510;BME280;13413;52.336;21.200;2023-01-28T16:13:20;101325.36;;;4.79;63.94
25510;BME280;13413;52.336;21.200;2023-01-28T16:16:12;101336.46;;;4.79;63.57
25510;BME280;13413;52.336;21.200;2023-01-28T16:23:51;101331.44;;;4.80;63.61
25510;BME280;13413;52.336;21.200;2023-01-28T16:26:57;101328.83;;;4.77;63.36
25510;BME280;13413;52.336;21.200;2023-01-28T16:29:52;101329.30;;;4.71;62.86
25510;BME280;13413;52.336;21.200;2023-01-28T16:32:46;101331.61;;;4.68;63.20